sensor_id;sensor_type;location;lat;lon;timestamp;temperature;humidity
53962;DHT22;39868;53.398;6.564;2023-02-15T00:02:02;4.30;78.70
53962;DHT22;39868;53.398;6.564;2023-02-15T00:04:30;4.30;78.70
53962;DHT22;39868;53.398;6.564;2023-02-15T00:07:17;4.20;78.70
53962;DHT22;39868;53.398;6.564;2023-02-15T00:09:47;4.20;78.70
53962;DHT22;39868;53.398;6.564;2023-02-15T00:12:15;4.20;78.80
53962;DHT22;39868;53.398;6.564;2023-02-15T00:14:47;4.10;78.90
53962;DHT22;39868;53.398;6.564;2023-02-15T00:17:14;4.10;78.90
53962;DHT22;39868;53.398;6.564;2023-02-15T00:19:42;4.10;79.00
53962;DHT22;39868;53.398;6.564;2023-02-15T00:22:09;4.00;78.90
53962;DHT22;39868;53.398;6.564;2023-02-15T00:24:36;4.00;78.90
53962;DHT22;39868;53.398;6.564;2023-02-15T00:27:04;4.00;79.10
53962;DHT22;39868;53.398;6.564;2023-02-15T00:29:31;4.00;79.20
53962;DHT22;39868;53.398;6.564;2023-02-15T00:31:59;4.00;79.10
53962;DHT22;39868;53.398;6.564;2023-02-15T00:34:27;4.00;79.20
53962;DHT22;39868;53.398;6.564;2023-02-15T00:36:56;3.90;79.20
53962;DHT22;39868;53.398;6.564;2023-02-15T00:39:23;3.90;79.30
53962;DHT22;39868;53.398;6.564;2023-02-15T00:41:51;3.90;79.20
53962;DHT22;39868;53.398;6.564;2023-02-15T00:44:18;3.90;79.30
53962;DHT22;39868;53.398;6.564;2023-02-15T00:46:46;3.80;79.20
53962;DHT22;39868;53.398;6.564;2023-02-15T00:49:13;3.80;79.30
53962;DHT22;39868;53.398;6.564;2023-02-15T00:51:41;3.80;79.30
53962;DHT22;39868;53.398;6.564;2023-02-15T00:54:08;3.80;79.30
53962;DHT22;39868;53.398;6.564;2023-02-15T00:56:35;3.80;79.40
53962;DHT22;39868;53.398;6.564;2023-02-15T00:59:03;3.80;79.40
53962;DHT22;39868;53.398;6.564;2023-02-15T01:01:30;3.70;79.30
53962;DHT22;39868;53.398;6.564;2023-02-15T01:03:58;3.70;79.30
53962;DHT22;39868;53.398;6.564;2023-02-15T01:06:28;3.70;79.30
53962;DHT22;39868;53.398;6.564;2023-02-15T01:08:56;3.70;79.30
53962;DHT22;39868;53.398;6.564;2023-02-15T01:11:23;3.70;79.30
53962;DHT22;39868;53.398;6.564;2023-02-15T01:13:54;3.70;79.30
53962;DHT22;39868;53.398;6.564;2023-02-15T01:16:23;3.70;79.30
53962;DHT22;39868;53.398;6.564;2023-02-15T01:18:51;3.70;79.30
53962;DHT22;39868;53.398;6.564;2023-02-15T01:21:21;3.70;79.30
53962;DHT22;39868;53.398;6.564;2023-02-15T01:23:49;3.70;79.30
53962;DHT22;39868;53.398;6.564;2023-02-15T01:26:17;3.70;79.30
53962;DHT22;39868;53.398;6.564;2023-02-15T01:28:44;3.70;79.30
53962;DHT22;39868;53.398;6.564;2023-02-15T01:31:17;3.70;79.30
53962;DHT22;39868;53.398;6.564;2023-02-15T01:33:46;3.70;79.40
53962;DHT22;39868;53.398;6.564;2023-02-15T01:36:14;3.70;79.40
53962;DHT22;39868;53.398;6.564;2023-02-15T01:38:41;3.70;79.30
53962;DHT22;39868;53.398;6.564;2023-02-15T01:41:09;3.70;79.40
53962;DHT22;39868;53.398;6.564;2023-02-15T01:43:56;3.60;79.30
53962;DHT22;39868;53.398;6.564;2023-02-15T01:46:40;3.60;79.30
53962;DHT22;39868;53.398;6.564;2023-02-15T01:49:16;3.60;79.30
53962;DHT22;39868;53.398;6.564;2023-02-15T01:51:46;3.60;79.40
53962;DHT22;39868;53.398;6.564;2023-02-15T01:54:27;3.60;79.30
53962;DHT22;39868;53.398;6.564;2023-02-15T01:57:11;3.60;79.30
53962;DHT22;39868;53.398;6.564;2023-02-15T01:59:43;3.60;79.30
53962;DHT22;39868;53.398;6.564;2023-02-15T02:02:13;3.60;79.30
53962;DHT22;39868;53.398;6.564;2023-02-15T02:04:49;3.60;79.30
53962;DHT22;39868;53.398;6.564;2023-02-15T02:07:20;3.60;79.30
53962;DHT22;39868;53.398;6.564;2023-02-15T02:09:48;3.50;79.30
53962;DHT22;39868;53.398;6.564;2023-02-15T02:12:17;3.50;79.40
53962;DHT22;39868;53.398;6.564;2023-02-15T02:14:46;3.50;79.40
53962;DHT22;39868;53.398;6.564;2023-02-15T02:23:02;3.50;79.40
53962;DHT22;39868;53.398;6.564;2023-02-15T02:34:15;3.40;79.40
53962;DHT22;39868;53.398;6.564;2023-02-15T02:37:08;3.40;79.40
53962;DHT22;39868;53.398;6.564;2023-02-15T02:42:17;3.30;79.50
53962;DHT22;39868;53.398;6.564;2023-02-15T02:45:05;3.30;79.50
53962;DHT22;39868;53.398;6.564;2023-02-15T02:47:50;3.30;79.50
53962;DHT22;39868;53.398;6.564;2023-02-15T02:50:25;3.30;79.60
53962;DHT22;39868;53.398;6.564;2023-02-15T02:52:55;3.30;79.60
53962;DHT22;39868;53.398;6.564;2023-02-15T02:58:20;3.20;79.60
53962;DHT22;39868;53.398;6.564;2023-02-15T03:01:03;3.20;79.50
53962;DHT22;39868;53.398;6.564;2023-02-15T03:03:39;3.20;79.60
53962;DHT22;39868;53.398;6.564;2023-02-15T03:06:16;3.20;79.60
53962;DHT22;39868;53.398;6.564;2023-02-15T03:08:51;3.20;79.70
53962;DHT22;39868;53.398;6.564;2023-02-15T03:11:20;3.20;79.70
53962;DHT22;39868;53.398;6.564;2023-02-15T03:13:49;3.20;79.60
53962;DHT22;39868;53.398;6.564;2023-02-15T03:16:20;3.20;79.60
53962;DHT22;39868;53.398;6.564;2023-02-15T03:19:03;3.10;79.60
53962;DHT22;39868;53.398;6.564;2023-02-15T03:24:43;3.10;79.60
53962;DHT22;39868;53.398;6.564;2023-02-15T03:27:11;3.10;79.60
53962;DHT22;39868;53.398;6.564;2023-02-15T03:29:40;3.10;79.60
53962;DHT22;39868;53.398;6.564;2023-02-15T03:32:10;3.10;79.60
53962;DHT22;39868;53.398;6.564;2023-02-15T03:34:38;3.00;79.60
53962;DHT22;39868;53.398;6.564;2023-02-15T03:37:13;3.00;79.60
53962;DHT22;39868;53.398;6.564;2023-02-15T03:42:22;3.00;79.60
53962;DHT22;39868;53.398;6.564;2023-02-15T03:47:36;3.00;79.60
53962;DHT22;39868;53.398;6.564;2023-02-15T03:52:55;3.00;79.60
53962;DHT22;39868;53.398;6.564;2023-02-15T03:55:24;3.00;79.60
53962;DHT22;39868;53.398;6.564;2023-02-15T03:57:52;2.90;79.50
53962;DHT22;39868;53.398;6.564;2023-02-15T04:00:43;2.90;79.50
53962;DHT22;39868;53.398;6.564;2023-02-15T04:03:38;2.90;79.60
53962;DHT22;39868;53.398;6.564;2023-02-15T04:06:06;2.90;79.60
53962;DHT22;39868;53.398;6.564;2023-02-15T04:08:34;2.90;79.60
53962;DHT22;39868;53.398;6.564;2023-02-15T04:11:19;2.90;79.60
53962;DHT22;39868;53.398;6.564;2023-02-15T04:13:47;2.90;79.60
53962;DHT22;39868;53.398;6.564;2023-02-15T04:16:14;2.90;79.60
53962;DHT22;39868;53.398;6.564;2023-02-15T04:18:43;2.90;79.60
53962;DHT22;39868;53.398;6.564;2023-02-15T04:21:30;2.90;79.60
53962;DHT22;39868;53.398;6.564;2023-02-15T04:24:16;2.90;79.60
53962;DHT22;39868;53.398;6.564;2023-02-15T04:27:03;2.90;79.60
53962;DHT22;39868;53.398;6.564;2023-02-15T04:29:31;2.90;79.60
53962;DHT22;39868;53.398;6.564;2023-02-15T04:32:00;2.90;79.60
53962;DHT22;39868;53.398;6.564;2023-02-15T04:34:28;2.90;79.60
53962;DHT22;39868;53.398;6.564;2023-02-15T04:36:55;2.90;79.60
53962;DHT22;39868;53.398;6.564;2023-02-15T04:39:22;2.90;79.60
53962;DHT22;39868;53.398;6.564;2023-02-15T04:41:50;2.90;79.60
53962;DHT22;39868;53.398;6.564;2023-02-15T04:44:17;2.90;79.60
53962;DHT22;39868;53.398;6.564;2023-02-15T04:46:44;2.90;79.60
53962;DHT22;39868;53.398;6.564;2023-02-15T04:49:12;2.90;79.60
53962;DHT22;39868;53.398;6.564;2023-02-15T04:51:39;2.90;79.60
53962;DHT22;39868;53.398;6.564;2023-02-15T04:54:06;2.90;79.60
53962;DHT22;39868;53.398;6.564;2023-02-15T04:56:34;3.00;79.70
53962;DHT22;39868;53.398;6.564;2023-02-15T04:59:01;3.00;79.70
53962;DHT22;39868;53.398;6.564;2023-02-15T05:01:29;2.90;79.60
53962;DHT22;39868;53.398;6.564;2023-02-15T05:03:56;2.90;79.60
53962;DHT22;39868;53.398;6.564;2023-02-15T05:06:24;2.90;79.60
53962;DHT22;39868;53.398;6.564;2023-02-15T05:08:51;2.90;79.60
53962;DHT22;39868;53.398;6.564;2023-02-15T05:11:18;2.90;79.60
53962;DHT22;39868;53.398;6.564;2023-02-15T05:13:46;2.90;79.60
53962;DHT22;39868;53.398;6.564;2023-02-15T05:16:13;2.90;79.60
53962;DHT22;39868;53.398;6.564;2023-02-15T05:18:40;2.90;79.60
53962;DHT22;39868;53.398;6.564;2023-02-15T05:21:08;2.90;79.60
53962;DHT22;39868;53.398;6.564;2023-02-15T05:23:35;2.80;79.50
53962;DHT22;39868;53.398;6.564;2023-02-15T05:26:03;2.90;79.60
53962;DHT22;39868;53.398;6.564;2023-02-15T05:28:52;2.80;79.60
53962;DHT22;39868;53.398;6.564;2023-02-15T05:31:20;2.80;79.60
53962;DHT22;39868;53.398;6.564;2023-02-15T05:33:48;2.80;79.60
53962;DHT22;39868;53.398;6.564;2023-02-15T05:36:15;2.80;79.60
53962;DHT22;39868;53.398;6.564;2023-02-15T05:38:43;2.80;79.60
53962;DHT22;39868;53.398;6.564;2023-02-15T05:41:11;2.80;79.60
53962;DHT22;39868;53.398;6.564;2023-02-15T05:43:38;2.80;79.60
53962;DHT22;39868;53.398;6.564;2023-02-15T05:46:07;2.80;79.60
53962;DHT22;39868;53.398;6.564;2023-02-15T05:48:35;2.70;79.60
53962;DHT22;39868;53.398;6.564;2023-02-15T05:51:03;2.70;79.60
53962;DHT22;39868;53.398;6.564;2023-02-15T05:53:33;2.70;79.60
53962;DHT22;39868;53.398;6.564;2023-02-15T05:56:02;2.70;79.60
53962;DHT22;39868;53.398;6.564;2023-02-15T05:58:32;2.70;79.70
53962;DHT22;39868;53.398;6.564;2023-02-15T06:01:06;2.70;79.70
53962;DHT22;39868;53.398;6.564;2023-02-15T06:03:34;2.70;79.70
53962;DHT22;39868;53.398;6.564;2023-02-15T06:06:01;2.70;79.70
53962;DHT22;39868;53.398;6.564;2023-02-15T06:08:32;2.70;79.70
53962;DHT22;39868;53.398;6.564;2023-02-15T06:10:59;2.70;79.70
53962;DHT22;39868;53.398;6.564;2023-02-15T06:13:27;2.70;79.70
53962;DHT22;39868;53.398;6.564;2023-02-15T06:15:54;2.70;79.70
53962;DHT22;39868;53.398;6.564;2023-02-15T06:18:22;2.80;79.80
53962;DHT22;39868;53.398;6.564;2023-02-15T06:20:49;2.70;79.70
53962;DHT22;39868;53.398;6.564;2023-02-15T06:23:17;2.80;79.80
53962;DHT22;39868;53.398;6.564;2023-02-15T06:25:45;2.70;79.80
53962;DHT22;39868;53.398;6.564;2023-02-15T06:28:13;2.80;79.80
53962;DHT22;39868;53.398;6.564;2023-02-15T06:30:40;2.70;80.40
53962;DHT22;39868;53.398;6.564;2023-02-15T06:33:08;2.80;79.80
53962;DHT22;39868;53.398;6.564;2023-02-15T06:35:35;2.80;79.90
53962;DHT22;39868;53.398;6.564;2023-02-15T06:38:03;2.80;79.90
53962;DHT22;39868;53.398;6.564;2023-02-15T06:40:31;2.80;79.90
53962;DHT22;39868;53.398;6.564;2023-02-15T06:42:58;2.80;79.90
53962;DHT22;39868;53.398;6.564;2023-02-15T06:45:26;2.80;79.90
53962;DHT22;39868;53.398;6.564;2023-02-15T06:47:53;2.80;79.90
53962;DHT22;39868;53.398;6.564;2023-02-15T06:50:21;2.80;79.90
53962;DHT22;39868;53.398;6.564;2023-02-15T06:52:48;2.80;79.90
53962;DHT22;39868;53.398;6.564;2023-02-15T06:55:16;2.80;79.90
53962;DHT22;39868;53.398;6.564;2023-02-15T06:57:43;2.80;79.90
53962;DHT22;39868;53.398;6.564;2023-02-15T07:00:11;2.80;79.90
53962;DHT22;39868;53.398;6.564;2023-02-15T07:02:39;2.80;79.90
53962;DHT22;39868;53.398;6.564;2023-02-15T07:05:07;2.80;79.90
53962;DHT22;39868;53.398;6.564;2023-02-15T07:07:34;2.80;79.90
53962;DHT22;39868;53.398;6.564;2023-02-15T07:10:02;2.80;79.90
53962;DHT22;39868;53.398;6.564;2023-02-15T07:12:30;2.80;79.90
53962;DHT22;39868;53.398;6.564;2023-02-15T07:15:17;2.80;79.90
53962;DHT22;39868;53.398;6.564;2023-02-15T07:17:45;2.80;79.90
53962;DHT22;39868;53.398;6.564;2023-02-15T07:20:20;2.80;79.90
53962;DHT22;39868;53.398;6.564;2023-02-15T07:22:49;2.80;79.90
53962;DHT22;39868;53.398;6.564;2023-02-15T07:25:16;2.90;80.50
53962;DHT22;39868;53.398;6.564;2023-02-15T07:27:44;2.90;80.00
53962;DHT22;39868;53.398;6.564;2023-02-15T07:30:14;2.90;80.00
53962;DHT22;39868;53.398;6.564;2023-02-15T07:32:43;2.90;80.00
53962;DHT22;39868;53.398;6.564;2023-02-15T07:35:31;2.90;80.00
53962;DHT22;39868;53.398;6.564;2023-02-15T07:38:00;3.00;80.00
53962;DHT22;39868;53.398;6.564;2023-02-15T07:40:27;3.00;80.00
53962;DHT22;39868;53.398;6.564;2023-02-15T07:42:57;3.00;80.10
53962;DHT22;39868;53.398;6.564;2023-02-15T07:45:26;3.00;80.10
53962;DHT22;39868;53.398;6.564;2023-02-15T07:47:54;3.10;80.10
53962;DHT22;39868;53.398;6.564;2023-02-15T07:50:21;3.10;80.20
53962;DHT22;39868;53.398;6.564;2023-02-15T07:52:48;3.20;80.20
53962;DHT22;39868;53.398;6.564;2023-02-15T07:55:16;3.20;80.20
53962;DHT22;39868;53.398;6.564;2023-02-15T07:57:44;3.20;80.20
53962;DHT22;39868;53.398;6.564;2023-02-15T08:00:17;3.30;80.30
53962;DHT22;39868;53.398;6.564;2023-02-15T08:02:48;3.30;80.30
53962;DHT22;39868;53.398;6.564;2023-02-15T08:05:37;3.40;80.30
53962;DHT22;39868;53.398;6.564;2023-02-15T08:08:04;3.40;80.20
53962;DHT22;39868;53.398;6.564;2023-02-15T08:10:33;3.40;80.20
53962;DHT22;39868;53.398;6.564;2023-02-15T08:13:18;3.40;80.20
53962;DHT22;39868;53.398;6.564;2023-02-15T08:15:49;3.50;80.20
53962;DHT22;39868;53.398;6.564;2023-02-15T08:18:17;3.50;80.20
53962;DHT22;39868;53.398;6.564;2023-02-15T08:20:49;3.50;80.20
53962;DHT22;39868;53.398;6.564;2023-02-15T08:23:17;3.60;80.20
53962;DHT22;39868;53.398;6.564;2023-02-15T08:25:44;3.60;80.20
53962;DHT22;39868;53.398;6.564;2023-02-15T08:28:11;3.70;80.30
53962;DHT22;39868;53.398;6.564;2023-02-15T08:30:39;3.70;80.30
53962;DHT22;39868;53.398;6.564;2023-02-15T08:33:06;3.80;80.30
53962;DHT22;39868;53.398;6.564;2023-02-15T08:35:33;3.80;80.30
53962;DHT22;39868;53.398;6.564;2023-02-15T08:38:01;3.90;80.40
53962;DHT22;39868;53.398;6.564;2023-02-15T08:40:28;3.90;80.40
53962;DHT22;39868;53.398;6.564;2023-02-15T08:42:56;4.00;80.40
53962;DHT22;39868;53.398;6.564;2023-02-15T08:45:23;4.00;80.40
53962;DHT22;39868;53.398;6.564;2023-02-15T08:47:52;4.10;80.50
53962;DHT22;39868;53.398;6.564;2023-02-15T08:50:20;4.20;80.60
53962;DHT22;39868;53.398;6.564;2023-02-15T08:52:52;4.20;80.60
53962;DHT22;39868;53.398;6.564;2023-02-15T08:55:19;4.30;80.60
53962;DHT22;39868;53.398;6.564;2023-02-15T08:57:46;4.40;80.70
53962;DHT22;39868;53.398;6.564;2023-02-15T09:00:15;4.50;80.70
53962;DHT22;39868;53.398;6.564;2023-02-15T09:02:43;4.60;80.80
53962;DHT22;39868;53.398;6.564;2023-02-15T09:05:10;4.70;80.90
53962;DHT22;39868;53.398;6.564;2023-02-15T09:07:38;4.80;81.00
53962;DHT22;39868;53.398;6.564;2023-02-15T09:10:07;4.90;81.10
53962;DHT22;39868;53.398;6.564;2023-02-15T09:12:34;5.00;81.20
53962;DHT22;39868;53.398;6.564;2023-02-15T09:15:02;5.10;81.30
53962;DHT22;39868;53.398;6.564;2023-02-15T09:17:29;5.20;81.40
53962;DHT22;39868;53.398;6.564;2023-02-15T09:19:57;5.30;82.10
53962;DHT22;39868;53.398;6.564;2023-02-15T09:22:27;5.40;81.60
53962;DHT22;39868;53.398;6.564;2023-02-15T09:24:55;5.50;81.70
53962;DHT22;39868;53.398;6.564;2023-02-15T09:27:46;5.60;81.70
53962;DHT22;39868;53.398;6.564;2023-02-15T09:30:38;5.80;81.80
53962;DHT22;39868;53.398;6.564;2023-02-15T09:33:06;5.90;81.90
53962;DHT22;39868;53.398;6.564;2023-02-15T09:35:33;6.10;81.90
53962;DHT22;39868;53.398;6.564;2023-02-15T09:38:03;6.20;82.00
53962;DHT22;39868;53.398;6.564;2023-02-15T09:40:39;6.30;82.20
53962;DHT22;39868;53.398;6.564;2023-02-15T09:43:32;6.40;82.20
53962;DHT22;39868;53.398;6.564;2023-02-15T09:46:44;6.50;82.20
53962;DHT22;39868;53.398;6.564;2023-02-15T09:49:31;6.60;82.10
53962;DHT22;39868;53.398;6.564;2023-02-15T10:11:52;7.70;82.80
53962;DHT22;39868;53.398;6.564;2023-02-15T10:26:50;8.40;83.20
53962;DHT22;39868;53.398;6.564;2023-02-15T10:29:35;8.60;83.50
53962;DHT22;39868;53.398;6.564;2023-02-15T10:32:27;8.70;83.50
53962;DHT22;39868;53.398;6.564;2023-02-15T10:38:09;9.00;83.40
53962;DHT22;39868;53.398;6.564;2023-02-15T10:55:08;9.90;83.40
53962;DHT22;39868;53.398;6.564;2023-02-15T11:00:41;10.20;83.10
53962;DHT22;39868;53.398;6.564;2023-02-15T11:03:24;10.30;83.00
53962;DHT22;39868;53.398;6.564;2023-02-15T11:08:30;10.60;82.60
53962;DHT22;39868;53.398;6.564;2023-02-15T11:11:01;10.80;82.50
53962;DHT22;39868;53.398;6.564;2023-02-15T11:13:34;10.90;82.40
53962;DHT22;39868;53.398;6.564;2023-02-15T11:16:07;11.00;82.10
53962;DHT22;39868;53.398;6.564;2023-02-15T11:18:48;11.10;81.90
53962;DHT22;39868;53.398;6.564;2023-02-15T11:21:26;11.30;81.60
53962;DHT22;39868;53.398;6.564;2023-02-15T11:23:55;11.40;81.20
53962;DHT22;39868;53.398;6.564;2023-02-15T11:26:34;11.50;81.00
53962;DHT22;39868;53.398;6.564;2023-02-15T11:29:23;11.60;80.50
53962;DHT22;39868;53.398;6.564;2023-02-15T11:34:51;11.80;78.80
53962;DHT22;39868;53.398;6.564;2023-02-15T11:37:27;11.90;78.60
53962;DHT22;39868;53.398;6.564;2023-02-15T11:39:56;11.90;78.00
53962;DHT22;39868;53.398;6.564;2023-02-15T11:42:25;12.00;77.90
53962;DHT22;39868;53.398;6.564;2023-02-15T11:44:58;12.10;77.30
53962;DHT22;39868;53.398;6.564;2023-02-15T11:47:27;12.10;77.20
53962;DHT22;39868;53.398;6.564;2023-02-15T11:49:55;12.20;77.60
53962;DHT22;39868;53.398;6.564;2023-02-15T11:52:24;12.20;77.50
53962;DHT22;39868;53.398;6.564;2023-02-15T11:54:55;12.30;76.80
53962;DHT22;39868;53.398;6.564;2023-02-15T11:57:31;12.40;77.00
53962;DHT22;39868;53.398;6.564;2023-02-15T12:00:12;12.40;76.10
53962;DHT22;39868;53.398;6.564;2023-02-15T12:02:46;12.50;77.20
53962;DHT22;39868;53.398;6.564;2023-02-15T12:05:19;12.60;77.10
53962;DHT22;39868;53.398;6.564;2023-02-15T12:08:15;12.70;77.10
53962;DHT22;39868;53.398;6.564;2023-02-15T12:11:00;12.80;77.00
53962;DHT22;39868;53.398;6.564;2023-02-15T12:13:30;12.80;76.80
53962;DHT22;39868;53.398;6.564;2023-02-15T12:15:58;12.90;77.10
53962;DHT22;39868;53.398;6.564;2023-02-15T12:18:39;13.00;76.40
53962;DHT22;39868;53.398;6.564;2023-02-15T12:21:11;13.10;77.30
53962;DHT22;39868;53.398;6.564;2023-02-15T12:23:51;13.30;77.00
53962;DHT22;39868;53.398;6.564;2023-02-15T12:26:27;13.40;76.20
53962;DHT22;39868;53.398;6.564;2023-02-15T12:28:58;13.50;75.80
53962;DHT22;39868;53.398;6.564;2023-02-15T12:31:33;13.60;75.60
53962;DHT22;39868;53.398;6.564;2023-02-15T12:34:10;13.60;75.20
53962;DHT22;39868;53.398;6.564;2023-02-15T12:36:44;13.70;74.90
53962;DHT22;39868;53.398;6.564;2023-02-15T12:39:29;13.70;74.00
53962;DHT22;39868;53.398;6.564;2023-02-15T12:42:04;13.80;74.60
53962;DHT22;39868;53.398;6.564;2023-02-15T12:44:34;13.80;74.60
53962;DHT22;39868;53.398;6.564;2023-02-15T12:47:10;13.80;74.20
53962;DHT22;39868;53.398;6.564;2023-02-15T12:49:44;13.80;72.80
53962;DHT22;39868;53.398;6.564;2023-02-15T12:52:30;13.90;73.70
53962;DHT22;39868;53.398;6.564;2023-02-15T12:55:25;13.90;74.10
53962;DHT22;39868;53.398;6.564;2023-02-15T12:58:08;13.90;74.10
53962;DHT22;39868;53.398;6.564;2023-02-15T13:00:36;14.00;73.50
53962;DHT22;39868;53.398;6.564;2023-02-15T13:03:04;14.00;73.70
53962;DHT22;39868;53.398;6.564;2023-02-15T13:05:35;14.00;73.80
53962;DHT22;39868;53.398;6.564;2023-02-15T13:13:33;14.10;73.50
53962;DHT22;39868;53.398;6.564;2023-02-15T13:16:05;14.10;73.00
53962;DHT22;39868;53.398;6.564;2023-02-15T13:18:37;14.20;73.10
53962;DHT22;39868;53.398;6.564;2023-02-15T13:21:29;14.20;73.50
53962;DHT22;39868;53.398;6.564;2023-02-15T13:24:02;14.20;73.90
53962;DHT22;39868;53.398;6.564;2023-02-15T13:26:34;14.20;73.70
53962;DHT22;39868;53.398;6.564;2023-02-15T13:29:11;14.20;73.80
53962;DHT22;39868;53.398;6.564;2023-02-15T13:31:42;14.30;73.60
53962;DHT22;39868;53.398;6.564;2023-02-15T13:34:37;14.30;73.90
53962;DHT22;39868;53.398;6.564;2023-02-15T13:37:21;14.30;74.00
53962;DHT22;39868;53.398;6.564;2023-02-15T13:40:01;14.30;73.60
53962;DHT22;39868;53.398;6.564;2023-02-15T14:01:58;14.40;73.20
53962;DHT22;39868;53.398;6.564;2023-02-15T14:10:00;14.50;72.50
53962;DHT22;39868;53.398;6.564;2023-02-15T14:12:35;14.40;72.50
53962;DHT22;39868;53.398;6.564;2023-02-15T14:26:08;14.50;72.30
53962;DHT22;39868;53.398;6.564;2023-02-15T14:31:28;14.50;72.10
53962;DHT22;39868;53.398;6.564;2023-02-15T14:33:57;14.50;72.00
53962;DHT22;39868;53.398;6.564;2023-02-15T14:36:25;14.50;72.00
53962;DHT22;39868;53.398;6.564;2023-02-15T14:44:09;14.50;71.70
53962;DHT22;39868;53.398;6.564;2023-02-15T14:49:25;14.40;71.80
53962;DHT22;39868;53.398;6.564;2023-02-15T14:51:54;14.40;71.80
53962;DHT22;39868;53.398;6.564;2023-02-15T15:04:41;14.40;71.30
53962;DHT22;39868;53.398;6.564;2023-02-15T15:09:41;14.30;71.70
53962;DHT22;39868;53.398;6.564;2023-02-15T15:14:50;14.20;71.50
53962;DHT22;39868;53.398;6.564;2023-02-15T15:31:22;14.00;71.50
53962;DHT22;39868;53.398;6.564;2023-02-15T15:37:03;13.90;71.30
53962;DHT22;39868;53.398;6.564;2023-02-15T15:39:55;13.80;71.10
53962;DHT22;39868;53.398;6.564;2023-02-15T15:50:42;13.60;70.80
53962;DHT22;39868;53.398;6.564;2023-02-15T15:53:20;13.60;70.90
53962;DHT22;39868;53.398;6.564;2023-02-15T15:55:50;13.50;70.70
53962;DHT22;39868;53.398;6.564;2023-02-15T15:58:21;13.40;70.50
53962;DHT22;39868;53.398;6.564;2023-02-15T16:00:51;13.40;70.70
53962;DHT22;39868;53.398;6.564;2023-02-15T16:03:24;13.30;70.60
53962;DHT22;39868;53.398;6.564;2023-02-15T16:05:52;13.30;70.50
53962;DHT22;39868;53.398;6.564;2023-02-15T16:08:33;13.20;70.50
53962;DHT22;39868;53.398;6.564;2023-02-15T16:11:19;13.10;70.70
53962;DHT22;39868;53.398;6.564;2023-02-15T16:13:48;13.10;70.80
53962;DHT22;39868;53.398;6.564;2023-02-15T16:16:21;13.00;71.10
53962;DHT22;39868;53.398;6.564;2023-02-15T16:18:50;13.00;70.90
53962;DHT22;39868;53.398;6.564;2023-02-15T16:21:26;12.90;70.90
53962;DHT22;39868;53.398;6.564;2023-02-15T16:29:50;12.70;70.90
53962;DHT22;39868;53.398;6.564;2023-02-15T16:32:25;12.60;71.00
53962;DHT22;39868;53.398;6.564;2023-02-15T16:34:56;12.50;70.80
53962;DHT22;39868;53.398;6.564;2023-02-15T16:37:34;12.50;70.80
53962;DHT22;39868;53.398;6.564;2023-02-15T16:40:03;12.40;70.80
53962;DHT22;39868;53.398;6.564;2023-02-15T16:42:31;12.30;70.70
53962;DHT22;39868;53.398;6.564;2023-02-15T16:45:08;12.30;70.90
53962;DHT22;39868;53.398;6.564;2023-02-15T16:47:40;12.20;71.00
53962;DHT22;39868;53.398;6.564;2023-02-15T16:50:18;12.10;71.00
53962;DHT22;39868;53.398;6.564;2023-02-15T16:52:46;12.00;71.00
53962;DHT22;39868;53.398;6.564;2023-02-15T16:55:26;12.00;71.20
53962;DHT22;39868;53.398;6.564;2023-02-15T16:57:57;11.90;71.20
53962;DHT22;39868;53.398;6.564;2023-02-15T17:00:28;11.80;71.30
53962;DHT22;39868;53.398;6.564;2023-02-15T17:03:21;11.70;71.30
53962;DHT22;39868;53.398;6.564;2023-02-15T17:05:55;11.60;71.40
53962;DHT22;39868;53.398;6.564;2023-02-15T17:08:32;11.60;71.40
53962;DHT22;39868;53.398;6.564;2023-02-15T17:11:10;11.50;71.50
53962;DHT22;39868;53.398;6.564;2023-02-15T17:13:39;11.40;71.60
53962;DHT22;39868;53.398;6.564;2023-02-15T17:16:27;11.30;71.60
53962;DHT22;39868;53.398;6.564;2023-02-15T17:18:55;11.30;71.70
53962;DHT22;39868;53.398;6.564;2023-02-15T17:21:33;11.20;71.80
53962;DHT22;39868;53.398;6.564;2023-02-15T17:24:02;11.10;71.80
53962;DHT22;39868;53.398;6.564;2023-02-15T17:26:33;11.10;72.00
53962;DHT22;39868;53.398;6.564;2023-02-15T17:29:09;11.00;72.00
53962;DHT22;39868;53.398;6.564;2023-02-15T17:31:38;11.00;72.10
53962;DHT22;39868;53.398;6.564;2023-02-15T17:34:08;10.90;72.10
53962;DHT22;39868;53.398;6.564;2023-02-15T17:36:59;10.90;72.20
53962;DHT22;39868;53.398;6.564;2023-02-15T17:39:26;10.90;72.30
53962;DHT22;39868;53.398;6.564;2023-02-15T17:41:53;10.80;72.30
53962;DHT22;39868;53.398;6.564;2023-02-15T17:44:21;10.80;72.40
53962;DHT22;39868;53.398;6.564;2023-02-15T17:46:48;10.80;72.40
53962;DHT22;39868;53.398;6.564;2023-02-15T17:49:23;10.70;72.50
53962;DHT22;39868;53.398;6.564;2023-02-15T17:51:51;10.70;72.60
53962;DHT22;39868;53.398;6.564;2023-02-15T17:54:18;10.70;72.60
53962;DHT22;39868;53.398;6.564;2023-02-15T17:57:15;10.60;72.60
53962;DHT22;39868;53.398;6.564;2023-02-15T17:59:42;10.60;72.70
53962;DHT22;39868;53.398;6.564;2023-02-15T18:02:38;10.60;72.80
53962;DHT22;39868;53.398;6.564;2023-02-15T18:05:24;10.60;72.80
53962;DHT22;39868;53.398;6.564;2023-02-15T18:08:17;10.50;72.80
53962;DHT22;39868;53.398;6.564;2023-02-15T18:11:05;10.50;72.80
53962;DHT22;39868;53.398;6.564;2023-02-15T18:13:51;10.40;72.80
53962;DHT22;39868;53.398;6.564;2023-02-15T18:16:22;10.40;72.90
53962;DHT22;39868;53.398;6.564;2023-02-15T18:18:49;10.40;73.00
53962;DHT22;39868;53.398;6.564;2023-02-15T18:21:18;10.40;73.00
53962;DHT22;39868;53.398;6.564;2023-02-15T18:23:46;10.30;73.00
53962;DHT22;39868;53.398;6.564;2023-02-15T18:26:20;10.30;73.00
53962;DHT22;39868;53.398;6.564;2023-02-15T18:28:48;10.30;73.10
53962;DHT22;39868;53.398;6.564;2023-02-15T18:31:17;10.30;73.20
53962;DHT22;39868;53.398;6.564;2023-02-15T18:33:57;10.20;73.20
53962;DHT22;39868;53.398;6.564;2023-02-15T18:36:32;10.20;73.80
53962;DHT22;39868;53.398;6.564;2023-02-15T18:39:00;10.20;73.20
53962;DHT22;39868;53.398;6.564;2023-02-15T18:41:35;10.20;73.30
53962;DHT22;39868;53.398;6.564;2023-02-15T18:44:06;10.20;73.30
53962;DHT22;39868;53.398;6.564;2023-02-15T18:46:35;10.20;73.40
53962;DHT22;39868;53.398;6.564;2023-02-15T18:49:02;10.20;73.40
53962;DHT22;39868;53.398;6.564;2023-02-15T18:51:33;10.20;73.40
53962;DHT22;39868;53.398;6.564;2023-02-15T18:54:20;10.20;73.50
53962;DHT22;39868;53.398;6.564;2023-02-15T18:56:56;10.10;73.40
53962;DHT22;39868;53.398;6.564;2023-02-15T18:59:26;10.10;73.50
53962;DHT22;39868;53.398;6.564;2023-02-15T19:01:55;10.10;73.50
53962;DHT22;39868;53.398;6.564;2023-02-15T19:04:23;10.10;73.60
53962;DHT22;39868;53.398;6.564;2023-02-15T19:06:52;10.00;73.60
53962;DHT22;39868;53.398;6.564;2023-02-15T19:09:23;10.00;73.60
53962;DHT22;39868;53.398;6.564;2023-02-15T19:11:55;10.00;73.60
53962;DHT22;39868;53.398;6.564;2023-02-15T19:14:29;10.00;73.60
53962;DHT22;39868;53.398;6.564;2023-02-15T19:16:58;10.00;73.60
53962;DHT22;39868;53.398;6.564;2023-02-15T19:19:26;10.00;73.60
53962;DHT22;39868;53.398;6.564;2023-02-15T19:21:54;9.90;73.60